createdAt,value
2017-06-21T00:00:35.381Z,2.50
2017-06-21T00:03:04.071Z,3.57
2017-06-21T00:05:32.761Z,2.00
2017-06-21T00:08:01.253Z,2.80
2017-06-21T00:10:30.996Z,2.47
2017-06-21T00:12:59.656Z,2.50
2017-06-21T00:15:29.001Z,2.67
2017-06-21T00:17:57.645Z,3.00
2017-06-21T00:20:27.159Z,3.10
2017-06-21T00:22:55.796Z,2.53
2017-06-21T00:25:24.488Z,2.40
2017-06-21T00:27:53.149Z,2.20
2017-06-21T00:30:22.274Z,2.40
2017-06-21T00:32:50.949Z,2.37
2017-06-21T00:35:19.467Z,2.40
2017-06-21T00:37:47.986Z,2.90
2017-06-21T00:40:16.654Z,1.77
2017-06-21T00:42:45.946Z,2.80
2017-06-21T00:45:15.773Z,3.47
2017-06-21T00:47:44.330Z,2.70
2017-06-21T00:50:13.040Z,3.53
2017-06-21T00:52:42.345Z,2.73
2017-06-21T00:55:11.630Z,2.47
2017-06-21T00:57:40.134Z,2.13
2017-06-21T01:00:09.391Z,3.87
2017-06-21T01:02:37.963Z,2.30
2017-06-21T01:05:06.612Z,2.70
2017-06-21T01:07:35.178Z,2.40
2017-06-21T01:10:04.383Z,2.30
2017-06-21T01:12:33.910Z,2.90
2017-06-21T01:15:02.556Z,2.87
2017-06-21T01:17:31.410Z,2.27
2017-06-21T01:20:00.046Z,2.23
2017-06-21T01:22:28.787Z,2.00
2017-06-21T01:24:57.301Z,2.33
2017-06-21T01:27:25.831Z,1.90
2017-06-21T01:29:54.430Z,3.57
2017-06-21T01:32:23.153Z,1.93
2017-06-21T01:34:52.225Z,2.10
2017-06-21T01:37:20.783Z,2.20
2017-06-21T01:39:49.425Z,2.30
2017-06-21T01:42:18.058Z,3.27
2017-06-21T01:44:47.050Z,2.33
2017-06-21T01:47:16.741Z,2.87
2017-06-21T01:49:46.055Z,2.80
2017-06-21T01:52:14.998Z,2.97
2017-06-21T01:54:43.653Z,2.07
2017-06-21T01:57:12.753Z,2.10
2017-06-21T01:59:41.841Z,3.23
2017-06-21T02:02:11.799Z,2.07
2017-06-21T02:04:40.498Z,3.80
2017-06-21T02:07:11.231Z,2.77
2017-06-21T02:09:39.776Z,3.23
2017-06-21T02:12:08.260Z,2.90
2017-06-21T02:14:38.707Z,2.50
2017-06-21T02:17:09.197Z,2.63
2017-06-21T02:19:37.706Z,2.37
2017-06-21T02:22:07.008Z,2.50
2017-06-21T02:24:35.596Z,2.10
2017-06-21T02:27:04.051Z,2.60
2017-06-21T02:29:34.391Z,1.90
2017-06-21T02:32:03.194Z,2.20
2017-06-21T02:34:31.866Z,2.30
2017-06-21T02:37:00.690Z,1.80
2017-06-21T02:39:29.290Z,2.10
2017-06-21T02:41:57.866Z,2.30
2017-06-21T02:44:26.326Z,2.83
2017-06-21T02:46:54.805Z,2.80
2017-06-21T02:49:23.282Z,3.13
2017-06-21T02:51:51.749Z,4.23
2017-06-21T02:54:20.451Z,2.60
2017-06-21T02:56:48.948Z,2.40
2017-06-21T02:59:17.914Z,2.60
2017-06-21T03:01:46.522Z,2.17
2017-06-21T03:04:15.281Z,2.50
2017-06-21T03:06:44.053Z,2.57
2017-06-21T03:09:13.993Z,2.73
2017-06-21T03:11:42.512Z,2.80
2017-06-21T03:14:11.164Z,3.60
2017-06-21T03:16:40.097Z,2.73
2017-06-21T03:19:09.221Z,2.13
2017-06-21T03:21:39.369Z,2.27
2017-06-21T03:24:08.064Z,2.73
2017-06-21T03:26:36.517Z,2.83
2017-06-21T03:29:05.110Z,2.37
2017-06-21T03:31:33.979Z,2.13
2017-06-21T03:34:03.074Z,2.90
2017-06-21T03:36:31.752Z,2.43
2017-06-21T03:39:00.317Z,2.80
2017-06-21T03:41:29.044Z,3.20
2017-06-21T03:43:58.756Z,2.70
2017-06-21T03:46:28.307Z,2.97
2017-06-21T03:48:57.001Z,2.57
2017-06-21T03:51:25.570Z,3.40
2017-06-21T03:53:54.358Z,3.20
2017-06-21T03:56:24.616Z,3.53
2017-06-21T03:58:53.293Z,2.60
2017-06-21T04:01:21.875Z,2.87
2017-06-21T04:03:50.356Z,3.30
2017-06-21T04:06:18.821Z,3.40
2017-06-21T04:08:47.393Z,3.20
2017-06-21T04:11:16.357Z,2.57
2017-06-21T04:13:45.577Z,2.70
2017-06-21T04:16:14.274Z,2.60
2017-06-21T04:18:42.981Z,2.30
2017-06-21T04:21:11.859Z,2.60
2017-06-21T04:23:40.342Z,2.43
2017-06-21T04:26:08.801Z,2.30
2017-06-21T04:28:37.289Z,2.13
2017-06-21T04:31:05.985Z,2.20
2017-06-21T04:33:34.589Z,3.00
2017-06-21T04:36:03.193Z,2.60
2017-06-21T04:38:32.148Z,2.70
2017-06-21T04:41:00.756Z,2.53
2017-06-21T04:43:29.447Z,2.40
2017-06-21T04:45:57.908Z,2.17
2017-06-21T04:48:26.392Z,2.40
2017-06-21T04:50:54.870Z,1.93
2017-06-21T04:53:23.560Z,2.23
2017-06-21T04:55:52.033Z,1.90
2017-06-21T04:58:21.190Z,1.77
2017-06-21T05:00:49.695Z,1.63
2017-06-21T05:03:18.897Z,1.90
2017-06-21T05:05:47.480Z,2.50
2017-06-21T05:08:16.674Z,2.23
2017-06-21T05:10:45.145Z,1.90
2017-06-21T05:13:13.620Z,1.93
2017-06-21T05:15:42.477Z,1.70
2017-06-21T05:25:35.981Z,1.70
2017-06-21T05:30:32.483Z,1.50
2017-06-21T05:33:09.730Z,1.70
2017-06-21T05:35:38.645Z,1.60
2017-06-21T05:38:07.633Z,1.80
2017-06-21T05:40:36.649Z,1.90
2017-06-21T05:43:05.129Z,1.67
2017-06-21T05:45:33.592Z,1.40
2017-06-21T05:48:02.056Z,1.60
2017-06-21T05:50:30.645Z,2.20
2017-06-21T05:52:59.292Z,1.90
2017-06-21T05:55:28.777Z,1.70
2017-06-21T05:57:57.648Z,1.83
2017-06-21T06:00:26.109Z,1.67
2017-06-21T06:02:54.693Z,1.50
2017-06-21T06:05:23.173Z,1.80
2017-06-21T06:07:51.626Z,1.67
2017-06-21T06:10:20.841Z,2.10
2017-06-21T06:12:49.437Z,1.90
2017-06-21T06:15:18.042Z,1.60
2017-06-21T06:17:46.664Z,1.40
2017-06-21T06:20:15.140Z,1.47
2017-06-21T06:22:44.374Z,2.20
2017-06-21T06:25:12.873Z,1.57
2017-06-21T06:27:41.343Z,1.47
2017-06-21T06:30:09.805Z,2.10
2017-06-21T06:32:38.997Z,1.83
2017-06-21T06:35:07.605Z,2.27
2017-06-21T06:37:36.076Z,1.40
2017-06-21T06:40:05.289Z,2.40
2017-06-21T06:42:33.797Z,2.13
2017-06-21T06:45:02.803Z,1.40
2017-06-21T06:47:31.382Z,2.77
2017-06-21T06:49:59.835Z,2.13
2017-06-21T06:52:28.413Z,1.73
2017-06-21T06:54:56.970Z,2.30
2017-06-21T06:57:26.321Z,1.67
2017-06-21T06:59:54.920Z,2.20
2017-06-21T07:02:23.401Z,1.40
2017-06-21T07:04:52.071Z,1.47
2017-06-21T07:07:21.076Z,1.90
2017-06-21T07:09:49.552Z,2.40
2017-06-21T07:12:18.904Z,1.70
2017-06-21T07:14:47.521Z,1.47
2017-06-21T07:17:16.245Z,1.57
2017-06-21T07:19:44.996Z,1.83
2017-06-21T07:22:13.702Z,1.83
2017-06-21T07:24:42.293Z,1.57
2017-06-21T07:27:10.828Z,1.40
2017-06-21T07:29:41.951Z,1.50
2017-06-21T07:32:10.697Z,1.87
2017-06-21T07:34:39.173Z,2.00
2017-06-21T07:37:08.323Z,1.90
2017-06-21T07:39:37.032Z,1.80
2017-06-21T07:42:07.098Z,2.37
2017-06-21T07:44:36.209Z,1.70
2017-06-21T07:47:04.829Z,2.03
2017-06-21T07:49:33.578Z,1.87
2017-06-21T07:52:02.059Z,1.37
2017-06-21T07:54:31.149Z,1.57
2017-06-21T07:56:59.732Z,1.03
2017-06-21T07:59:29.198Z,1.70
2017-06-21T08:01:57.690Z,1.20
2017-06-21T08:04:26.375Z,2.07
2017-06-21T08:06:54.963Z,1.30
2017-06-21T08:09:23.464Z,1.50
2017-06-21T08:11:52.274Z,1.07
2017-06-21T08:14:20.729Z,1.00
2017-06-21T08:16:55.431Z,1.43
2017-06-21T08:19:24.178Z,1.40
2017-06-21T08:21:52.630Z,1.27
2017-06-21T08:24:21.380Z,1.90
2017-06-21T08:26:50.787Z,1.77
2017-06-21T08:29:19.272Z,1.70
2017-06-21T08:31:47.776Z,1.60
2017-06-21T08:36:47.067Z,1.43
2017-06-21T08:39:15.857Z,2.07
2017-06-21T08:41:45.384Z,1.20
2017-06-21T08:44:14.464Z,1.20
2017-06-21T08:46:43.819Z,0.90
2017-06-21T08:49:12.250Z,1.50
2017-06-21T08:51:40.765Z,1.33
2017-06-21T08:54:09.457Z,1.43
2017-06-21T08:56:38.425Z,1.50
2017-06-21T08:59:07.157Z,1.40
2017-06-21T09:04:03.729Z,1.30
2017-06-21T09:06:32.189Z,1.30
2017-06-21T09:09:00.838Z,1.07
2017-06-21T09:11:29.349Z,1.30
2017-06-21T09:13:57.834Z,1.30
2017-06-21T09:16:26.686Z,1.80
2017-06-21T09:18:56.122Z,2.03
2017-06-21T09:21:24.597Z,1.70
2017-06-21T09:23:53.091Z,1.33
2017-06-21T09:26:21.566Z,1.17
2017-06-21T09:28:50.146Z,1.30
2017-06-21T09:31:18.625Z,1.17
2017-06-21T09:33:47.091Z,1.27
2017-06-21T09:36:15.618Z,1.63
2017-06-21T09:38:44.636Z,1.47
2017-06-21T09:41:13.130Z,1.23
2017-06-21T09:43:41.857Z,1.60
2017-06-21T09:46:10.291Z,1.20
2017-06-21T09:48:38.881Z,1.50
2017-06-21T09:51:08.102Z,1.50
2017-06-21T09:53:36.640Z,1.53
2017-06-21T09:56:05.194Z,1.67
2017-06-21T09:58:33.661Z,1.47
2017-06-21T10:05:58.677Z,1.00
2017-06-21T10:08:27.909Z,1.53
2017-06-21T10:10:56.463Z,1.03
2017-06-21T10:13:25.772Z,1.40
2017-06-21T10:15:54.219Z,1.80
2017-06-21T10:18:23.299Z,1.50
2017-06-21T10:20:51.739Z,1.10
2017-06-21T10:23:20.709Z,1.93
2017-06-21T10:28:18.033Z,1.60
2017-06-21T10:30:46.522Z,1.80
2017-06-21T10:33:15.000Z,1.30
2017-06-21T10:35:43.457Z,1.20
2017-06-21T10:38:13.971Z,1.97
2017-06-21T10:40:42.732Z,2.03
2017-06-21T10:43:13.152Z,2.17
2017-06-21T10:45:42.213Z,1.80
2017-06-21T10:48:11.023Z,2.03
2017-06-21T10:50:40.134Z,1.77
2017-06-21T10:58:07.054Z,2.27
2017-06-21T11:00:35.691Z,2.53
2017-06-21T11:03:04.194Z,2.23
2017-06-21T11:05:33.636Z,1.90
2017-06-21T11:08:02.544Z,2.20
2017-06-21T11:10:31.050Z,2.30
2017-06-21T13:27:50.874Z,0.77
2017-06-21T13:30:21.381Z,0.70
2017-06-21T13:32:54.461Z,1.50
2017-06-21T13:35:23.006Z,0.90
2017-06-21T13:37:57.240Z,1.57
2017-06-21T13:40:25.790Z,1.30
2017-06-21T13:42:56.509Z,1.60
2017-06-21T13:45:28.716Z,1.23
2017-06-21T13:47:59.321Z,1.30
2017-06-21T14:10:22.726Z,1.37
2017-06-21T14:27:55.532Z,1.47
2017-06-21T14:30:26.862Z,1.40
2017-06-21T14:32:57.838Z,1.17
2017-06-21T14:35:28.508Z,1.27
2017-06-21T14:38:02.153Z,1.20
2017-06-21T14:40:34.982Z,1.40
2017-06-21T14:43:11.681Z,1.60
2017-06-21T14:45:42.760Z,1.50
2017-06-21T14:48:13.654Z,1.60
2017-06-21T14:50:48.903Z,1.67
2017-06-21T14:53:18.788Z,1.27
2017-06-21T14:55:47.845Z,1.50
2017-06-21T14:58:19.483Z,1.40
2017-06-21T15:00:50.776Z,1.10
2017-06-21T15:03:22.195Z,1.63
2017-06-21T15:05:55.355Z,1.50
2017-06-21T15:08:26.906Z,1.33
2017-06-21T15:11:02.453Z,1.70
2017-06-21T16:17:55.026Z,1.47
2017-06-21T16:20:24.586Z,1.33
2017-06-21T16:22:53.073Z,1.50
2017-06-21T16:25:22.401Z,1.30
2017-06-21T16:27:50.845Z,1.17
2017-06-21T16:30:19.774Z,1.70
2017-06-21T16:32:48.601Z,1.40
2017-06-21T16:35:17.497Z,1.50
2017-06-21T16:37:46.005Z,1.20
2017-06-21T16:40:14.767Z,1.50
2017-06-21T16:42:43.473Z,1.20
2017-06-21T16:45:12.143Z,1.33
2017-06-21T16:47:40.713Z,1.83
2017-06-21T16:50:09.190Z,1.37
2017-06-21T16:52:38.354Z,2.13
2017-06-21T16:55:07.845Z,2.00
2017-06-21T16:57:37.118Z,1.47
2017-06-21T17:00:05.586Z,1.70
2017-06-21T18:46:21.972Z,1.33
2017-06-21T18:48:51.217Z,1.27
2017-06-21T18:51:19.896Z,1.33
2017-06-21T18:53:48.436Z,1.70
2017-06-21T18:56:17.149Z,1.40
2017-06-21T18:58:45.692Z,1.80
2017-06-21T19:01:14.816Z,1.20
2017-06-21T19:03:43.535Z,1.37
2017-06-21T19:06:12.205Z,1.27
2017-06-21T19:08:44.322Z,1.50
2017-06-21T19:11:13.204Z,1.73
2017-06-21T19:13:42.327Z,1.60
2017-06-21T19:16:10.858Z,1.57
2017-06-21T19:18:40.839Z,1.60
2017-06-21T19:21:10.205Z,1.57
2017-06-21T19:23:38.768Z,1.40
2017-06-21T19:26:07.461Z,1.60
2017-06-21T19:28:37.967Z,1.67
2017-06-21T19:31:08.699Z,1.10
2017-06-21T19:33:39.226Z,1.30
2017-06-21T19:36:09.986Z,1.43
2017-06-21T19:38:39.816Z,1.77
2017-06-21T19:41:10.287Z,1.27
2017-06-21T19:43:39.204Z,1.67
2017-06-21T19:46:07.814Z,1.40
2017-06-21T19:48:36.401Z,1.70
2017-06-21T19:51:06.017Z,1.50
2017-06-21T19:53:34.528Z,1.70
2017-06-21T19:56:03.166Z,1.70
2017-06-21T19:58:32.426Z,1.10
2017-06-21T20:01:01.241Z,1.70
2017-06-21T20:03:30.424Z,1.60
2017-06-21T20:05:59.023Z,1.60
2017-06-21T20:08:27.484Z,1.50
2017-06-21T20:10:56.813Z,1.47
2017-06-21T20:13:25.257Z,1.60
2017-06-21T20:15:53.744Z,1.40
2017-06-21T20:18:22.785Z,1.37
2017-06-21T20:20:51.325Z,1.50
2017-06-21T20:23:19.925Z,1.67
2017-06-21T20:25:49.763Z,1.77
2017-06-21T20:28:19.393Z,1.87
2017-06-21T20:30:47.916Z,1.20
2017-06-21T20:33:16.489Z,1.33
2017-06-21T20:35:45.215Z,2.07
2017-06-21T20:38:13.937Z,1.70
2017-06-21T20:40:42.629Z,1.80
2017-06-21T20:43:11.619Z,1.97
2017-06-21T20:45:40.225Z,1.80
2017-06-21T20:48:10.403Z,1.90
2017-06-21T20:50:39.590Z,1.50
2017-06-21T20:53:08.173Z,1.83
2017-06-21T20:55:36.755Z,1.70
2017-06-21T20:58:05.260Z,2.40
2017-06-21T21:00:33.934Z,1.70
2017-06-21T21:03:02.441Z,2.40
2017-06-21T21:05:30.969Z,1.63
2017-06-21T21:07:59.619Z,1.80
2017-06-21T21:10:28.206Z,2.00
2017-06-21T21:12:56.867Z,1.80
2017-06-21T21:15:25.969Z,1.97
2017-06-21T21:17:54.544Z,2.03
2017-06-21T21:20:23.221Z,2.20
2017-06-21T21:22:51.905Z,2.60
2017-06-21T21:25:20.575Z,2.37
2017-06-21T21:27:50.033Z,2.17
2017-06-21T21:30:18.802Z,2.63
2017-06-21T21:32:47.498Z,2.43
2017-06-21T21:35:16.072Z,2.23
2017-06-21T21:37:44.857Z,1.97
2017-06-21T21:40:13.900Z,2.27
2017-06-21T21:42:42.360Z,2.43
2017-06-21T21:45:11.121Z,2.37
2017-06-21T21:47:39.680Z,2.10
2017-06-21T21:50:08.941Z,1.80
2017-06-21T21:52:37.762Z,2.10
2017-06-21T21:55:06.310Z,2.53
2017-06-21T21:57:34.884Z,2.77
2017-06-21T22:00:03.801Z,1.70
2017-06-21T22:02:32.320Z,2.40
2017-06-21T22:05:00.801Z,2.13
2017-06-21T22:07:30.121Z,2.10
2017-06-21T22:09:58.653Z,1.90
2017-06-21T22:12:27.167Z,2.07
2017-06-21T22:14:56.184Z,2.13
2017-06-21T22:17:24.802Z,2.43
2017-06-21T22:19:53.337Z,2.30
2017-06-21T22:22:21.806Z,2.10
2017-06-21T22:24:51.157Z,2.33
2017-06-21T22:27:20.324Z,2.47
2017-06-21T22:29:48.935Z,1.93
2017-06-21T22:32:17.406Z,2.60
2017-06-21T22:34:46.001Z,2.60
2017-06-21T22:37:14.897Z,2.50
2017-06-21T22:39:43.476Z,3.07
2017-06-21T22:42:11.957Z,2.57
2017-06-21T22:44:40.445Z,2.50
2017-06-21T22:47:09.004Z,2.80
2017-06-21T22:49:37.877Z,2.87
2017-06-21T22:52:07.809Z,2.77
2017-06-21T22:54:36.305Z,2.77
2017-06-21T22:57:04.813Z,2.70
2017-06-21T22:59:33.667Z,2.50
2017-06-21T23:02:02.337Z,2.80
2017-06-21T23:04:31.566Z,2.47
2017-06-21T23:07:00.112Z,2.50
2017-06-21T23:09:28.749Z,2.97
2017-06-21T23:11:57.265Z,2.80
2017-06-21T23:14:25.721Z,3.00
2017-06-21T23:16:54.620Z,3.40
2017-06-21T23:19:23.573Z,3.47
2017-06-21T23:21:52.066Z,2.60
2017-06-21T23:24:20.677Z,3.00
2017-06-21T23:26:49.350Z,4.50
2017-06-21T23:29:17.826Z,2.77
2017-06-21T23:31:46.312Z,2.90
2017-06-21T23:34:15.014Z,2.60
2017-06-21T23:36:43.484Z,3.60
2017-06-21T23:39:12.025Z,2.90
2017-06-21T23:41:41.408Z,2.63
2017-06-21T23:44:10.218Z,3.00
2017-06-21T23:46:39.476Z,2.50
2017-06-21T23:49:08.234Z,2.93
2017-06-21T23:51:36.745Z,2.10
2017-06-21T23:54:05.338Z,2.60
2017-06-21T23:56:33.892Z,2.73
2017-06-21T23:59:02.359Z,2.67
